Flight Track Log - Related Links

Times and Time Zones

All times are in EST time to prevent confusion due to time zone crossing. See the UCA3598 flight status page for this flight to view local times or setup timezone preferences in your user account.

Time Position Orientation Groundspeed Altitude Reporting Facility
EST Latitude Longitude Course Direction KTS MPH feet Rate Location/Type
Thu 10:19:01 PM 38.9617 -77.5672 North 138 159 3,600  Level Washington Center
Thu 10:19:59 PM 38.9714 -77.6208 283° West 154 177 5,400 1,729 Climbing Washington Center
Thu 10:20:59 PM 39.0039 -77.6617 316° Northwest 154 177 7,000 1,339 Climbing Washington Center
Thu 10:22:00 PM 39.0536 -77.6844 340° North 171 197 8,100 1,339 Climbing Washington Center
Thu 10:23:00 PM 39.2713 -77.3195 North  Level Estimated
Thu 10:23:00 PM 39.1122 -77.6675 13° North 189 217 9,700  Level Washington Center
Thu 10:23:59 PM 39.1686 -77.6583 North 201 231 11,000 650 Climbing Washington Center
Thu 10:25:00 PM 39.2356 -77.6469 North 217 250 11,000 300 Level Washington Center
Thu 10:25:59 PM 39.3089 -77.6356 North 243 280 11,600 1,150 Climbing Washington Center
Thu 10:27:00 PM 39.3719 -77.6025 22° Northeast 250 288 13,300 1,438 Climbing Washington Center
Thu 10:28:00 PM 39.4308 -77.5692 24° Northeast 237 273 14,500 1,190 Climbing Washington Center
Thu 10:29:01 PM 39.4917 -77.5358 23° Northeast 232 267 15,700 1,184 Climbing Washington Center
Thu 10:30:32 PM 39.5953 -77.4800 23° Northeast 248 285 17,500 993 Climbing New York Center
Thu 10:31:32 PM 39.6594 -77.4511 19° North 254 292 18,200 750 Climbing New York Center
Thu 10:32:32 PM 39.7261 -77.4519 359° North 236 272 19,000 400 Climbing New York Center
Thu 10:33:32 PM 39.7992 -77.4508 North 249 287 19,000  Level New York Center
Thu 10:34:32 PM 39.8806 -77.4503 360° North 281 323 19,000  Level New York Center
Thu 10:35:32 PM 39.9619 -77.4500 360° North 287 330 19,000  Level New York Center
Thu 10:36:32 PM 40.0369 -77.4492 360° North 292 336 19,000  Level New York Center
Thu 10:37:32 PM 40.1269 -77.4442 North 292 336 19,000  Level New York Center
Thu 10:38:32 PM 40.1939 -77.4044 24° Northeast 292 336 19,000  Level New York Center
Thu 10:39:32 PM 40.2783 -77.3497 26° Northeast 300 345 19,000  Level New York Center
Thu 10:40:32 PM 40.3472 -77.3075 25° Northeast 300 345 19,000  Level New York Center
Thu 10:41:32 PM 40.4314 -77.2553 25° Northeast 300 345 19,000  Level New York Center
Thu 10:42:32 PM 40.5006 -77.2100 26° Northeast 300 345 19,000  Level New York Center
Thu 10:43:32 PM 40.5847 -77.1578 25° Northeast 300 345 19,000  Level New York Center
Thu 10:44:32 PM 40.6539 -77.1147 25° Northeast 306 352 19,000  Level New York Center
Thu 10:45:32 PM 40.7336 -77.0647 25° Northeast 306 352 19,000  Level New York Center
Thu 10:46:32 PM 40.8092 -77.0167 26° Northeast 306 352 19,000  Level New York Center
Thu 10:47:32 PM 40.8931 -76.9642 25° Northeast 306 352 19,000  Level New York Center
Thu 10:48:32 PM 40.9600 -76.9206 26° Northeast 306 352 19,000  Level New York Center
Thu 10:49:32 PM 41.0375 -76.8725 25° Northeast 301 346 19,000  Level New York Center
Thu 10:50:32 PM 41.1150 -76.8217 26° Northeast 301 346 19,000  Level New York Center
Thu 10:51:32 PM 41.1925 -76.7736 25° Northeast 301 346 19,000  Level New York Center
Thu 10:52:32 PM 41.2703 -76.7225 26° Northeast 301 346 19,000  Level New York Center
Thu 10:53:32 PM 41.3458 -76.6683 28° Northeast 301 346 19,000  Level New York Center
Thu 10:54:32 PM 41.4294 -76.6175 25° Northeast 306 352 19,000 -350 Level New York Center
Thu 10:55:32 PM 41.5069 -76.5661 26° Northeast 306 352 18,300 -1,250 Descending New York Center
Thu 10:56:32 PM 41.5886 -76.5150 25° Northeast 317 365 16,500 -1,850 Descending New York Center
Thu 10:57:32 PM 41.6597 -76.4656 27° Northeast 323 372 14,600 -2,050 Descending New York Center
Thu 10:58:32 PM 41.7356 -76.4081 29° Northeast 317 365 12,400 -2,550 Descending New York Center
Thu 10:59:32 PM 41.8117 -76.3394 34° Northeast 305 351 9,500 -2,250 Descending New York Center
Thu 11:00:32 PM 41.8767 -76.2836 33° Northeast 286 329 7,900 -1,550 Descending New York Center
Thu 11:01:32 PM 41.9397 -76.2247 35° Northeast 280 322 6,400 -1,450 Descending New York Center
Thu 11:02:32 PM 41.9983 -76.1736 33° Northeast 273 314 5,000 -1,500 Descending New York Center
Thu 11:03:32 PM 42.0656 -76.1119 34° Northeast 272 313 3,400 -900 Descending New York Center
Thu 11:04:32 PM 42.1236 -76.0719 27° Northeast 256 295 3,200 2,800 Descending New York Center
Thu 11:05:32 PM 42.1753 -76.0342 28° Northeast 232 267 9,000 -450 Climbing New York Center
Thu 11:06:32 PM 42.2178 -76.0153 18° North 190 219 2,300 -3,500 Descending New York Center
Thu 11:07:32 PM 42.2583 -75.9933 22° Northeast 174 200 2,000 3,350 Descending New York Center
Thu 11:08:32 PM 42.3008 -75.9686 23° Northeast 174 200 9,000 3,500 Climbing New York Center
Thu 11:09:32 PM 42.3436 -75.9439 23° Northeast 174 200 9,000  Level New York Center
Thu 11:10:32 PM 42.3864 -75.9192 23° Northeast 174 200 9,000  Level New York Center
Thu 11:11:32 PM 42.4119 -75.9044 23° Northeast 174 200 9,000  Level New York Center

Login

Don't have an account? Register now (free) for customized features, flight alerts, and more!